sensor_id;sensor_type;location;lat;lon;timestamp;P1;durP1;ratioP1;P2;durP2;ratioP2
76758;SDS011;65701;45.588;5.186;2024-03-02T17:51:33;8.25;;;8.00;;
76758;SDS011;65701;45.588;5.186;2024-03-02T17:53:59;28.25;;;28.25;;
76758;SDS011;65701;45.588;5.186;2024-03-02T17:56:25;20.75;;;18.75;;
76758;SDS011;65701;45.588;5.186;2024-03-02T17:58:50;8.00;;;8.00;;
76758;SDS011;65701;45.588;5.186;2024-03-02T18:01:16;2.00;;;2.00;;
76758;SDS011;65701;45.588;5.186;2024-03-02T18:03:42;8.25;;;8.25;;
76758;SDS011;65701;45.588;5.186;2024-03-02T18:06:07;2.50;;;2.50;;
76758;SDS011;65701;45.588;5.186;2024-03-02T18:08:33;4.00;;;3.75;;
76758;SDS011;65701;45.588;5.186;2024-03-02T18:10:59;2.25;;;2.25;;
76758;SDS011;65701;45.588;5.186;2024-03-02T18:13:25;3.00;;;2.50;;
76758;SDS011;65701;45.588;5.186;2024-03-02T18:15:50;2.75;;;2.00;;
76758;SDS011;65701;45.588;5.186;2024-03-02T18:18:16;5.25;;;3.00;;
76758;SDS011;65701;45.588;5.186;2024-03-02T18:20:42;4.25;;;4.25;;
76758;SDS011;65701;45.588;5.186;2024-03-02T18:23:07;1.25;;;1.25;;
76758;SDS011;65701;45.588;5.186;2024-03-02T18:25:33;4.00;;;3.00;;
76758;SDS011;65701;45.588;5.186;2024-03-02T18:27:59;3.00;;;2.00;;
76758;SDS011;65701;45.588;5.186;2024-03-02T18:30:24;4.25;;;3.00;;
76758;SDS011;65701;45.588;5.186;2024-03-02T18:32:50;3.25;;;2.75;;
76758;SDS011;65701;45.588;5.186;2024-03-02T18:35:15;3.75;;;1.75;;
76758;SDS011;65701;45.588;5.186;2024-03-02T18:37:43;2.75;;;1.00;;
76758;SDS011;65701;45.588;5.186;2024-03-02T18:40:10;3.00;;;3.00;;
76758;SDS011;65701;45.588;5.186;2024-03-02T18:42:36;4.00;;;3.25;;
76758;SDS011;65701;45.588;5.186;2024-03-02T18:45:02;3.25;;;2.25;;
76758;SDS011;65701;45.588;5.186;2024-03-02T18:47:30;2.00;;;2.00;;
76758;SDS011;65701;45.588;5.186;2024-03-02T18:50:00;2.00;;;2.00;;
76758;SDS011;65701;45.588;5.186;2024-03-02T18:52:28;3.00;;;3.00;;
76758;SDS011;65701;45.588;5.186;2024-03-02T18:54:53;1.50;;;1.50;;
76758;SDS011;65701;45.588;5.186;2024-03-02T18:57:19;4.00;;;2.25;;
76758;SDS011;65701;45.588;5.186;2024-03-02T18:59:44;2.00;;;2.00;;
76758;SDS011;65701;45.588;5.186;2024-03-02T19:02:10;1.50;;;1.50;;
76758;SDS011;65701;45.588;5.186;2024-03-02T19:04:37;1.25;;;1.25;;
76758;SDS011;65701;45.588;5.186;2024-03-02T19:07:03;2.00;;;2.00;;
76758;SDS011;65701;45.588;5.186;2024-03-02T19:09:29;1.75;;;1.75;;
76758;SDS011;65701;45.588;5.186;2024-03-02T19:11:55;1.00;;;1.00;;
76758;SDS011;65701;45.588;5.186;2024-03-02T19:14:21;3.25;;;1.75;;
76758;SDS011;65701;45.588;5.186;2024-03-02T19:16:48;1.25;;;1.25;;
76758;SDS011;65701;45.588;5.186;2024-03-02T19:19:15;5.50;;;3.00;;
76758;SDS011;65701;45.588;5.186;2024-03-02T19:21:44;2.00;;;2.00;;
76758;SDS011;65701;45.588;5.186;2024-03-02T19:24:10;2.00;;;1.75;;
76758;SDS011;65701;45.588;5.186;2024-03-02T19:26:36;1.50;;;1.50;;
76758;SDS011;65701;45.588;5.186;2024-03-02T19:29:02;1.25;;;1.25;;
76758;SDS011;65701;45.588;5.186;2024-03-02T19:34:35;2.75;;;2.75;;
76758;SDS011;65701;45.588;5.186;2024-03-02T19:37:24;4.00;;;3.00;;
76758;SDS011;65701;45.588;5.186;2024-03-02T19:40:00;3.25;;;2.75;;
76758;SDS011;65701;45.588;5.186;2024-03-02T19:42:27;4.00;;;3.00;;
76758;SDS011;65701;45.588;5.186;2024-03-02T19:44:55;6.25;;;3.25;;
76758;SDS011;65701;45.588;5.186;2024-03-02T19:47:23;1.00;;;1.00;;
76758;SDS011;65701;45.588;5.186;2024-03-02T19:49:59;1.75;;;1.75;;
76758;SDS011;65701;45.588;5.186;2024-03-02T19:52:25;1.00;;;1.00;;
76758;SDS011;65701;45.588;5.186;2024-03-02T19:54:53;3.00;;;1.75;;
76758;SDS011;65701;45.588;5.186;2024-03-02T19:57:22;2.00;;;1.00;;
76758;SDS011;65701;45.588;5.186;2024-03-02T20:00:16;1.75;;;1.75;;
76758;SDS011;65701;45.588;5.186;2024-03-02T20:02:53;1.50;;;1.50;;
76758;SDS011;65701;45.588;5.186;2024-03-02T20:05:24;3.50;;;1.75;;
76758;SDS011;65701;45.588;5.186;2024-03-02T20:07:51;3.25;;;2.75;;
76758;SDS011;65701;45.588;5.186;2024-03-02T20:10:19;2.00;;;2.00;;
76758;SDS011;65701;45.588;5.186;2024-03-02T20:27:03;2.25;;;0.75;;
76758;SDS011;65701;45.588;5.186;2024-03-02T20:33:17;2.00;;;2.00;;
76758;SDS011;65701;45.588;5.186;2024-03-02T20:36:15;2.75;;;1.00;;
76758;SDS011;65701;45.588;5.186;2024-03-02T20:39:12;3.75;;;1.25;;
76758;SDS011;65701;45.588;5.186;2024-03-02T20:52:35;1.50;;;1.50;;
76758;SDS011;65701;45.588;5.186;2024-03-02T20:55:48;1.25;;;1.25;;
76758;SDS011;65701;45.588;5.186;2024-03-02T21:01:46;2.00;;;2.00;;
76758;SDS011;65701;45.588;5.186;2024-03-02T21:04:38;3.00;;;3.00;;
76758;SDS011;65701;45.588;5.186;2024-03-02T21:07:09;1.75;;;1.75;;
76758;SDS011;65701;45.588;5.186;2024-03-02T21:09:43;2.25;;;2.00;;
76758;SDS011;65701;45.588;5.186;2024-03-02T21:12:20;1.75;;;1.75;;
76758;SDS011;65701;45.588;5.186;2024-03-02T21:18:39;4.25;;;2.00;;
76758;SDS011;65701;45.588;5.186;2024-03-02T21:28:44;2.00;;;2.00;;
76758;SDS011;65701;45.588;5.186;2024-03-02T22:09:46;2.00;;;1.75;;
76758;SDS011;65701;45.588;5.186;2024-03-02T22:15:43;2.25;;;2.25;;
76758;SDS011;65701;45.588;5.186;2024-03-02T22:18:23;3.75;;;3.00;;
76758;SDS011;65701;45.588;5.186;2024-03-02T22:23:24;0.75;;;0.75;;
76758;SDS011;65701;45.588;5.186;2024-03-02T22:25:49;0.00;;;0.00;;
76758;SDS011;65701;45.588;5.186;2024-03-02T22:28:15;0.00;;;0.00;;
76758;SDS011;65701;45.588;5.186;2024-03-02T22:30:40;0.00;;;0.00;;
76758;SDS011;65701;45.588;5.186;2024-03-02T22:33:06;0.00;;;0.00;;
76758;SDS011;65701;45.588;5.186;2024-03-02T22:35:31;0.00;;;0.00;;
76758;SDS011;65701;45.588;5.186;2024-03-02T22:37:57;0.00;;;0.00;;
76758;SDS011;65701;45.588;5.186;2024-03-02T22:40:22;1.00;;;0.00;;
76758;SDS011;65701;45.588;5.186;2024-03-02T22:42:49;0.75;;;0.75;;
76758;SDS011;65701;45.588;5.186;2024-03-02T22:45:15;0.00;;;0.00;;
76758;SDS011;65701;45.588;5.186;2024-03-02T22:47:40;0.00;;;0.00;;
76758;SDS011;65701;45.588;5.186;2024-03-02T22:50:06;0.25;;;0.25;;
76758;SDS011;65701;45.588;5.186;2024-03-02T22:52:32;1.00;;;0.00;;
76758;SDS011;65701;45.588;5.186;2024-03-02T22:54:57;0.50;;;0.00;;
76758;SDS011;65701;45.588;5.186;2024-03-02T22:57:23;0.00;;;0.00;;
76758;SDS011;65701;45.588;5.186;2024-03-02T22:59:48;0.00;;;0.00;;
76758;SDS011;65701;45.588;5.186;2024-03-02T23:02:15;1.00;;;1.00;;
76758;SDS011;65701;45.588;5.186;2024-03-02T23:04:45;1.00;;;0.00;;
76758;SDS011;65701;45.588;5.186;2024-03-02T23:07:11;0.75;;;0.00;;
76758;SDS011;65701;45.588;5.186;2024-03-02T23:09:37;0.00;;;0.00;;
76758;SDS011;65701;45.588;5.186;2024-03-02T23:12:03;0.00;;;0.00;;
76758;SDS011;65701;45.588;5.186;2024-03-02T23:14:29;0.00;;;0.00;;
76758;SDS011;65701;45.588;5.186;2024-03-02T23:16:55;0.00;;;0.00;;
76758;SDS011;65701;45.588;5.186;2024-03-02T23:19:20;0.00;;;0.00;;
76758;SDS011;65701;45.588;5.186;2024-03-02T23:21:47;0.00;;;0.00;;
76758;SDS011;65701;45.588;5.186;2024-03-02T23:24:13;0.00;;;0.00;;
76758;SDS011;65701;45.588;5.186;2024-03-02T23:26:39;0.00;;;0.00;;
76758;SDS011;65701;45.588;5.186;2024-03-02T23:29:04;0.00;;;0.00;;
76758;SDS011;65701;45.588;5.186;2024-03-02T23:31:30;0.00;;;0.00;;
76758;SDS011;65701;45.588;5.186;2024-03-02T23:33:56;0.00;;;0.00;;
